Bookmark and Share
Track history (hours):
 

Statia Express

Last reported at 2014-Apr-17 00:25 UTC. Time now 2014-Apr-17 00:55 UTC.
Position N 17°55' W 063°07'.

Length 28 m; draft 4.1 m.

Type: Tug. MMSI: 538003879.

NotesDate/timePositionNaut miles runAvg speedWind from/ knotsBaromVisibWave heightAir tempDewpointWater temp
2014-Apr-17 00:25N 17°55' W 063°07'5 4.9
2014-Apr-16 23:19N 17°60' W 063°05'2 1.6
2014-Apr-16 22:12N 18°01' W 063°03'0 0.1
2014-Apr-16 16:12N 18°01' W 063°03'0 0.2
2014-Apr-16 14:13N 18°01' W 063°03'0 0.3
2014-Apr-16 13:20N 18°01' W 063°03'0 0.2
2014-Apr-16 11:33N 18°01' W 063°03'1 0.0
2014-Apr-15 21:32N 18°01' W 063°03'  
2014-Apr-09 00:21N 18°01' W 063°04'1 1.5
2014-Apr-08 23:32N 17°60' W 063°05'5 4.2
2014-Apr-08 22:28N 17°55' W 063°05'7 5.7
2014-Apr-08 21:18N 17°48' W 063°04'4 5.7
2014-Apr-08 20:33N 17°44' W 063°03'6 0.7
2014-Apr-08 12:15N 17°38' W 063°06'5 5.4
2014-Apr-08 11:22N 17°43' W 063°06'10 5.4
2014-Apr-08 09:29N 17°53' W 063°05'5 5.5
2014-Apr-08 08:31N 17°59' W 063°05'3 1.1
2014-Apr-08 06:12N 18°01' W 063°05'0 0.0
2014-Apr-08 05:28N 18°01' W 063°05'0 0.0
2014-Apr-08 04:22N 18°01' W 063°05'0 0.0
2014-Apr-07 22:28N 18°01' W 063°05'0 0.0
2014-Apr-07 20:16N 18°01' W 063°05'1 0.2
2014-Apr-07 17:11N 18°01' W 063°05'2 0.4
2014-Apr-07 12:29N 18°01' W 063°03'1 0.5
2014-Apr-07 11:26N 18°01' W 063°03'0 0.0
2014-Apr-07 10:14N 18°01' W 063°03'0 0.0
2014-Apr-07 09:31N 18°01' W 063°03'0 0.0
2014-Apr-07 08:31N 18°01' W 063°03'0 0.0
2014-Apr-07 07:13N 18°01' W 063°03'0 0.0
2014-Apr-07 06:18N 18°01' W 063°03'0 0.0
2014-Apr-07 02:17N 18°01' W 063°03'  

Dump ship's entire track history

sailing weather and tide predictions

Statia Express — V7TT3 — position and weather